Blue Mountain, Alabama
Current Conditions -  °F | °C
As of 3:53 PM on Saturday 25 Oct 2014 (Local Time) from KANB Reporting Station
Clear Clear  
Wind Chill: 76°   Ceiling: Unl
Heat Index: 76°   Visibility: 10mi
Dew Point: 49°   Wind: 7mph
Humidity: 38%   Direction: 340°NNW
Pressure: 30.04"   Gusts: NA
Location:  33.6853°N, 85.8231°W
Report Text: KANB 252053Z AUTO 34006KT 10SM CLR 24/09 A3004 RMK AO2 SLP172 T02440094 56013
Loading
Personal Weather Stations






























Interactive Weather Map
Tropical Storm Tracking
New forecast layout! Learn more

10-Day Weather Forecast

Advertisements
Track Severe Weather on mobile